LiveATC.Net - Listen to live air traffic control over the Internet!


ICAO: ENEV  IATA: EVE   Airport: Harstad/Narvik Airport
City: Evenes
Country: Norway   Continent: Europe
ENEV METAR Weather: ENEV 161250Z 34012KT 300V010 CAVOK 14/06 Q1013 RMK WIND 1400FT 01013KT
ENEV Flight Activity (FlightAware)

ENEV Twr/App/ACC
Feed Status: UP   Listeners: 0
Listen in your browser - HTML5 player (in browser, HTML5)
Click here to listen with your own player (launches your MP3 player)
ENEV Twr/App/ACC Audio Archives
FacilityFrequency
Evenes Approach120.100
Evenes Tower118.000
Norway ACC (Bodo Sector 25)126.450

NOTICE

Unauthorized use prohibited. See LiveATC.net Terms of Service


Find LiveATC Audio Streams


Airport/ARTCC Code

Frequency Search
(e.g., 124.400, 128.75)
Site-wide search
 


Browse LiveATC Feeds
Top 50 LiveATC Feeds
LiveATC Feed Map
Bad Weather Areas

LiveATC FAQ
Offer LiveATC feed
Contact LiveATC.net
Press Inquiries

LiveATC on iPhone
LiveATC on Android

Windows Phone
Windows 8/10

LiveATC Mobile
(Mobile browser)

ATC Audio Archives
Interesting Recordings

LiveATC Forums


Home Page
About LiveATC.net
Make a Donation
Terms of Use
Privacy Policy

Canadian Air Freqs

AIRMETs/SIGMETs

FAA Airport Status
Nat'l Airspace Status
Arrival Demand Charts


Server Software By:
Icecast.org
Liquidsoap